sensor_id;sensor_type;location;lat;lon;timestamp;P1;durP1;ratioP1;P2;durP2;ratioP2
8486;SDS011;4280;50.534;8.708;2024-03-02T00:00:21;27.70;;;15.70;;
8486;SDS011;4280;50.534;8.708;2024-03-02T00:02:49;27.37;;;15.57;;
8486;SDS011;4280;50.534;8.708;2024-03-02T00:05:16;23.63;;;14.90;;
8486;SDS011;4280;50.534;8.708;2024-03-02T00:07:53;26.00;;;14.00;;
8486;SDS011;4280;50.534;8.708;2024-03-02T00:10:22;27.00;;;15.00;;
8486;SDS011;4280;50.534;8.708;2024-03-02T00:12:54;30.33;;;14.50;;
8486;SDS011;4280;50.534;8.708;2024-03-02T00:15:37;25.70;;;14.93;;
8486;SDS011;4280;50.534;8.708;2024-03-02T00:18:11;26.13;;;15.43;;
8486;SDS011;4280;50.534;8.708;2024-03-02T00:20:39;25.87;;;15.20;;
8486;SDS011;4280;50.534;8.708;2024-03-02T00:23:06;28.23;;;15.57;;
8486;SDS011;4280;50.534;8.708;2024-03-02T00:25:55;26.37;;;16.43;;
8486;SDS011;4280;50.534;8.708;2024-03-02T00:28:24;29.30;;;16.03;;
8486;SDS011;4280;50.534;8.708;2024-03-02T00:30:57;31.50;;;15.63;;
8486;SDS011;4280;50.534;8.708;2024-03-02T00:33:27;31.60;;;16.00;;
8486;SDS011;4280;50.534;8.708;2024-03-02T00:36:04;29.67;;;16.93;;
8486;SDS011;4280;50.534;8.708;2024-03-02T00:38:31;31.03;;;17.50;;
8486;SDS011;4280;50.534;8.708;2024-03-02T00:40:59;29.50;;;14.93;;
8486;SDS011;4280;50.534;8.708;2024-03-02T00:43:39;28.13;;;16.93;;
8486;SDS011;4280;50.534;8.708;2024-03-02T00:46:10;28.63;;;15.33;;
8486;SDS011;4280;50.534;8.708;2024-03-02T00:49:03;29.33;;;16.27;;
8486;SDS011;4280;50.534;8.708;2024-03-02T00:51:51;25.70;;;15.50;;
8486;SDS011;4280;50.534;8.708;2024-03-02T00:54:19;32.63;;;17.07;;
8486;SDS011;4280;50.534;8.708;2024-03-02T00:56:49;32.70;;;17.40;;
8486;SDS011;4280;50.534;8.708;2024-03-02T00:59:15;29.50;;;17.97;;
8486;SDS011;4280;50.534;8.708;2024-03-02T01:01:41;31.13;;;16.10;;
8486;SDS011;4280;50.534;8.708;2024-03-02T01:04:08;31.67;;;17.73;;
8486;SDS011;4280;50.534;8.708;2024-03-02T01:06:34;31.73;;;17.80;;
8486;SDS011;4280;50.534;8.708;2024-03-02T01:09:00;31.30;;;17.93;;
8486;SDS011;4280;50.534;8.708;2024-03-02T01:11:27;32.03;;;17.87;;
8486;SDS011;4280;50.534;8.708;2024-03-02T01:13:53;35.23;;;17.10;;
8486;SDS011;4280;50.534;8.708;2024-03-02T01:16:19;32.40;;;18.53;;
8486;SDS011;4280;50.534;8.708;2024-03-02T01:18:45;31.23;;;18.80;;
8486;SDS011;4280;50.534;8.708;2024-03-02T01:21:11;34.00;;;17.83;;
8486;SDS011;4280;50.534;8.708;2024-03-02T01:23:37;32.30;;;17.77;;
8486;SDS011;4280;50.534;8.708;2024-03-02T01:26:03;33.97;;;19.37;;
8486;SDS011;4280;50.534;8.708;2024-03-02T01:28:29;30.27;;;17.57;;
8486;SDS011;4280;50.534;8.708;2024-03-02T01:30:54;41.70;;;19.00;;
8486;SDS011;4280;50.534;8.708;2024-03-02T01:33:20;35.50;;;18.57;;
8486;SDS011;4280;50.534;8.708;2024-03-02T01:35:46;35.37;;;18.00;;
8486;SDS011;4280;50.534;8.708;2024-03-02T01:38:12;38.87;;;18.50;;
8486;SDS011;4280;50.534;8.708;2024-03-02T01:40:38;38.07;;;19.27;;
8486;SDS011;4280;50.534;8.708;2024-03-02T01:43:05;37.20;;;18.93;;
8486;SDS011;4280;50.534;8.708;2024-03-02T01:45:31;35.33;;;19.50;;
8486;SDS011;4280;50.534;8.708;2024-03-02T01:47:57;33.87;;;18.43;;
8486;SDS011;4280;50.534;8.708;2024-03-02T01:52:58;36.17;;;18.00;;
8486;SDS011;4280;50.534;8.708;2024-03-02T01:55:24;36.07;;;19.20;;
8486;SDS011;4280;50.534;8.708;2024-03-02T01:57:51;42.93;;;20.50;;
8486;SDS011;4280;50.534;8.708;2024-03-02T02:00:20;34.40;;;21.10;;
8486;SDS011;4280;50.534;8.708;2024-03-02T02:02:50;32.77;;;18.47;;
8486;SDS011;4280;50.534;8.708;2024-03-02T02:05:17;37.13;;;20.13;;
8486;SDS011;4280;50.534;8.708;2024-03-02T02:07:43;40.93;;;20.77;;
8486;SDS011;4280;50.534;8.708;2024-03-02T02:10:12;35.50;;;19.90;;
8486;SDS011;4280;50.534;8.708;2024-03-02T02:12:38;31.70;;;19.10;;
8486;SDS011;4280;50.534;8.708;2024-03-02T02:15:04;36.57;;;20.07;;
8486;SDS011;4280;50.534;8.708;2024-03-02T02:17:51;37.30;;;19.87;;
8486;SDS011;4280;50.534;8.708;2024-03-02T02:20:17;37.67;;;20.87;;
8486;SDS011;4280;50.534;8.708;2024-03-02T02:22:59;43.17;;;22.37;;
8486;SDS011;4280;50.534;8.708;2024-03-02T02:25:26;42.40;;;22.57;;
8486;SDS011;4280;50.534;8.708;2024-03-02T02:27:53;43.90;;;22.47;;
8486;SDS011;4280;50.534;8.708;2024-03-02T02:30:20;41.47;;;21.37;;
8486;SDS011;4280;50.534;8.708;2024-03-02T02:32:54;39.43;;;21.40;;
8486;SDS011;4280;50.534;8.708;2024-03-02T02:35:19;45.00;;;22.43;;
8486;SDS011;4280;50.534;8.708;2024-03-02T02:37:45;41.00;;;21.30;;
8486;SDS011;4280;50.534;8.708;2024-03-02T02:40:12;40.47;;;19.77;;
8486;SDS011;4280;50.534;8.708;2024-03-02T02:42:38;38.43;;;21.13;;
8486;SDS011;4280;50.534;8.708;2024-03-02T02:45:05;50.10;;;23.73;;
8486;SDS011;4280;50.534;8.708;2024-03-02T02:47:31;44.87;;;23.80;;
8486;SDS011;4280;50.534;8.708;2024-03-02T02:50:01;49.40;;;24.20;;
8486;SDS011;4280;50.534;8.708;2024-03-02T02:52:32;42.70;;;24.80;;
8486;SDS011;4280;50.534;8.708;2024-03-02T02:55:00;47.43;;;23.80;;
8486;SDS011;4280;50.534;8.708;2024-03-02T02:57:27;51.20;;;23.07;;
8486;SDS011;4280;50.534;8.708;2024-03-02T02:59:55;49.97;;;22.30;;
8486;SDS011;4280;50.534;8.708;2024-03-02T03:02:21;67.70;;;25.40;;
8486;SDS011;4280;50.534;8.708;2024-03-02T03:04:47;48.93;;;24.50;;
8486;SDS011;4280;50.534;8.708;2024-03-02T03:07:13;57.00;;;25.10;;
8486;SDS011;4280;50.534;8.708;2024-03-02T03:09:38;45.37;;;23.70;;
8486;SDS011;4280;50.534;8.708;2024-03-02T03:12:04;47.83;;;25.83;;
8486;SDS011;4280;50.534;8.708;2024-03-02T03:14:30;51.30;;;26.23;;
8486;SDS011;4280;50.534;8.708;2024-03-02T03:16:56;47.50;;;23.40;;
8486;SDS011;4280;50.534;8.708;2024-03-02T03:19:21;52.10;;;26.07;;
8486;SDS011;4280;50.534;8.708;2024-03-02T03:21:47;53.23;;;26.60;;
8486;SDS011;4280;50.534;8.708;2024-03-02T03:24:13;47.63;;;25.13;;
8486;SDS011;4280;50.534;8.708;2024-03-02T03:26:39;56.80;;;26.03;;
8486;SDS011;4280;50.534;8.708;2024-03-02T03:29:04;50.33;;;25.83;;
8486;SDS011;4280;50.534;8.708;2024-03-02T03:31:31;53.07;;;27.07;;
8486;SDS011;4280;50.534;8.708;2024-03-02T03:33:57;60.07;;;28.10;;
8486;SDS011;4280;50.534;8.708;2024-03-02T03:36:22;56.37;;;28.67;;
8486;SDS011;4280;50.534;8.708;2024-03-02T03:38:48;57.87;;;28.20;;
8486;SDS011;4280;50.534;8.708;2024-03-02T03:41:14;60.87;;;30.63;;
8486;SDS011;4280;50.534;8.708;2024-03-02T03:43:40;63.70;;;29.13;;
8486;SDS011;4280;50.534;8.708;2024-03-02T03:46:06;63.73;;;29.30;;
8486;SDS011;4280;50.534;8.708;2024-03-02T03:48:31;75.20;;;33.10;;
8486;SDS011;4280;50.534;8.708;2024-03-02T03:50:57;76.30;;;31.27;;
8486;SDS011;4280;50.534;8.708;2024-03-02T03:53:22;69.13;;;30.97;;
8486;SDS011;4280;50.534;8.708;2024-03-02T03:55:49;70.13;;;31.27;;
8486;SDS011;4280;50.534;8.708;2024-03-02T03:58:15;67.83;;;30.83;;
8486;SDS011;4280;50.534;8.708;2024-03-02T04:00:42;78.43;;;31.83;;
8486;SDS011;4280;50.534;8.708;2024-03-02T04:03:08;70.87;;;33.07;;
8486;SDS011;4280;50.534;8.708;2024-03-02T04:05:33;89.77;;;33.20;;
8486;SDS011;4280;50.534;8.708;2024-03-02T04:07:59;81.50;;;33.20;;
8486;SDS011;4280;50.534;8.708;2024-03-02T04:10:26;80.07;;;31.20;;
8486;SDS011;4280;50.534;8.708;2024-03-02T04:12:51;72.47;;;32.60;;
8486;SDS011;4280;50.534;8.708;2024-03-02T04:15:17;90.30;;;35.87;;
8486;SDS011;4280;50.534;8.708;2024-03-02T04:17:43;74.67;;;34.00;;
8486;SDS011;4280;50.534;8.708;2024-03-02T04:20:09;84.90;;;34.10;;
8486;SDS011;4280;50.534;8.708;2024-03-02T04:22:37;84.57;;;34.27;;
8486;SDS011;4280;50.534;8.708;2024-03-02T04:25:03;83.57;;;33.87;;
8486;SDS011;4280;50.534;8.708;2024-03-02T04:27:32;84.80;;;34.77;;
8486;SDS011;4280;50.534;8.708;2024-03-02T04:29:58;93.00;;;35.30;;
8486;SDS011;4280;50.534;8.708;2024-03-02T04:32:25;99.57;;;37.93;;
8486;SDS011;4280;50.534;8.708;2024-03-02T04:34:52;94.73;;;36.30;;
8486;SDS011;4280;50.534;8.708;2024-03-02T04:37:17;92.47;;;34.80;;
8486;SDS011;4280;50.534;8.708;2024-03-02T04:39:43;99.03;;;36.20;;
8486;SDS011;4280;50.534;8.708;2024-03-02T04:42:09;95.93;;;36.00;;
8486;SDS011;4280;50.534;8.708;2024-03-02T04:44:34;93.03;;;35.87;;
8486;SDS011;4280;50.534;8.708;2024-03-02T04:47:00;98.10;;;38.13;;
8486;SDS011;4280;50.534;8.708;2024-03-02T04:49:26;86.60;;;36.67;;
8486;SDS011;4280;50.534;8.708;2024-03-02T04:51:52;85.00;;;35.33;;
8486;SDS011;4280;50.534;8.708;2024-03-02T04:54:17;98.77;;;37.50;;
8486;SDS011;4280;50.534;8.708;2024-03-02T04:56:43;92.00;;;36.20;;
8486;SDS011;4280;50.534;8.708;2024-03-02T04:59:15;89.80;;;37.27;;
8486;SDS011;4280;50.534;8.708;2024-03-02T05:01:44;91.27;;;36.60;;
8486;SDS011;4280;50.534;8.708;2024-03-02T05:04:11;97.20;;;37.57;;
8486;SDS011;4280;50.534;8.708;2024-03-02T05:06:37;90.97;;;33.47;;
8486;SDS011;4280;50.534;8.708;2024-03-02T05:09:06;99.10;;;37.07;;
8486;SDS011;4280;50.534;8.708;2024-03-02T05:11:35;94.53;;;35.80;;
8486;SDS011;4280;50.534;8.708;2024-03-02T05:14:18;109.53;;;37.50;;
8486;SDS011;4280;50.534;8.708;2024-03-02T05:16:44;77.43;;;35.10;;
8486;SDS011;4280;50.534;8.708;2024-03-02T05:19:10;101.03;;;36.73;;
8486;SDS011;4280;50.534;8.708;2024-03-02T05:21:35;109.87;;;38.53;;
8486;SDS011;4280;50.534;8.708;2024-03-02T05:24:01;109.30;;;38.97;;
8486;SDS011;4280;50.534;8.708;2024-03-02T05:26:27;121.13;;;38.03;;
8486;SDS011;4280;50.534;8.708;2024-03-02T05:28:53;90.37;;;36.97;;
8486;SDS011;4280;50.534;8.708;2024-03-02T05:31:18;99.73;;;36.17;;
8486;SDS011;4280;50.534;8.708;2024-03-02T05:33:44;106.03;;;38.20;;
8486;SDS011;4280;50.534;8.708;2024-03-02T05:36:10;104.90;;;38.70;;
8486;SDS011;4280;50.534;8.708;2024-03-02T05:38:35;99.30;;;36.47;;
8486;SDS011;4280;50.534;8.708;2024-03-02T05:41:01;114.30;;;37.23;;
8486;SDS011;4280;50.534;8.708;2024-03-02T05:43:27;111.00;;;38.50;;
8486;SDS011;4280;50.534;8.708;2024-03-02T05:45:53;105.97;;;37.83;;
8486;SDS011;4280;50.534;8.708;2024-03-02T05:48:19;115.97;;;39.77;;
8486;SDS011;4280;50.534;8.708;2024-03-02T05:50:44;98.13;;;39.80;;
8486;SDS011;4280;50.534;8.708;2024-03-02T05:53:10;90.80;;;37.10;;
8486;SDS011;4280;50.534;8.708;2024-03-02T05:55:36;88.20;;;34.03;;
8486;SDS011;4280;50.534;8.708;2024-03-02T05:58:02;129.60;;;39.10;;
8486;SDS011;4280;50.534;8.708;2024-03-02T06:00:30;88.37;;;35.73;;
8486;SDS011;4280;50.534;8.708;2024-03-02T06:02:56;88.93;;;35.50;;
8486;SDS011;4280;50.534;8.708;2024-03-02T06:05:22;107.90;;;37.57;;
8486;SDS011;4280;50.534;8.708;2024-03-02T06:07:47;100.47;;;37.83;;
8486;SDS011;4280;50.534;8.708;2024-03-02T06:10:13;116.43;;;38.20;;
8486;SDS011;4280;50.534;8.708;2024-03-02T06:12:39;96.90;;;38.87;;
8486;SDS011;4280;50.534;8.708;2024-03-02T06:15:05;104.67;;;39.47;;
8486;SDS011;4280;50.534;8.708;2024-03-02T06:17:31;107.07;;;36.57;;
8486;SDS011;4280;50.534;8.708;2024-03-02T06:19:58;102.60;;;37.43;;
8486;SDS011;4280;50.534;8.708;2024-03-02T06:22:23;96.13;;;36.37;;
8486;SDS011;4280;50.534;8.708;2024-03-02T06:24:50;109.93;;;35.60;;
8486;SDS011;4280;50.534;8.708;2024-03-02T06:27:16;110.67;;;37.77;;
8486;SDS011;4280;50.534;8.708;2024-03-02T06:29:42;103.33;;;36.50;;
8486;SDS011;4280;50.534;8.708;2024-03-02T06:32:08;108.93;;;37.53;;
8486;SDS011;4280;50.534;8.708;2024-03-02T06:34:33;103.23;;;36.90;;
8486;SDS011;4280;50.534;8.708;2024-03-02T06:36:59;85.53;;;34.50;;
8486;SDS011;4280;50.534;8.708;2024-03-02T06:39:25;106.23;;;35.00;;
8486;SDS011;4280;50.534;8.708;2024-03-02T06:41:51;81.87;;;33.10;;
8486;SDS011;4280;50.534;8.708;2024-03-02T06:44:17;87.07;;;35.17;;
8486;SDS011;4280;50.534;8.708;2024-03-02T06:46:42;89.00;;;34.27;;
8486;SDS011;4280;50.534;8.708;2024-03-02T06:49:08;93.73;;;33.90;;
8486;SDS011;4280;50.534;8.708;2024-03-02T06:51:35;83.13;;;32.70;;
8486;SDS011;4280;50.534;8.708;2024-03-02T06:54:01;79.80;;;31.87;;
8486;SDS011;4280;50.534;8.708;2024-03-02T06:56:27;112.73;;;37.23;;
8486;SDS011;4280;50.534;8.708;2024-03-02T06:58:53;80.70;;;34.50;;
8486;SDS011;4280;50.534;8.708;2024-03-02T07:01:18;100.43;;;33.40;;
8486;SDS011;4280;50.534;8.708;2024-03-02T07:03:45;90.60;;;34.87;;
8486;SDS011;4280;50.534;8.708;2024-03-02T07:06:11;86.63;;;34.47;;
8486;SDS011;4280;50.534;8.708;2024-03-02T07:08:37;90.37;;;36.23;;
8486;SDS011;4280;50.534;8.708;2024-03-02T07:11:02;99.20;;;34.20;;
8486;SDS011;4280;50.534;8.708;2024-03-02T07:13:28;66.97;;;31.57;;
8486;SDS011;4280;50.534;8.708;2024-03-02T07:15:54;92.73;;;32.63;;
8486;SDS011;4280;50.534;8.708;2024-03-02T07:18:29;69.43;;;33.03;;
8486;SDS011;4280;50.534;8.708;2024-03-02T07:20:58;81.73;;;31.40;;
8486;SDS011;4280;50.534;8.708;2024-03-02T07:23:26;62.53;;;29.37;;
8486;SDS011;4280;50.534;8.708;2024-03-02T07:25:52;78.27;;;31.03;;
8486;SDS011;4280;50.534;8.708;2024-03-02T07:28:21;80.10;;;30.90;;
8486;SDS011;4280;50.534;8.708;2024-03-02T07:30:57;70.57;;;29.20;;
8486;SDS011;4280;50.534;8.708;2024-03-02T07:33:24;73.77;;;30.87;;
8486;SDS011;4280;50.534;8.708;2024-03-02T07:35:50;61.33;;;28.40;;
8486;SDS011;4280;50.534;8.708;2024-03-02T07:38:15;68.27;;;27.80;;
8486;SDS011;4280;50.534;8.708;2024-03-02T07:40:42;60.60;;;27.77;;
8486;SDS011;4280;50.534;8.708;2024-03-02T07:43:08;60.10;;;25.10;;
8486;SDS011;4280;50.534;8.708;2024-03-02T07:45:33;54.90;;;25.73;;
8486;SDS011;4280;50.534;8.708;2024-03-02T07:48:01;53.13;;;23.03;;
8486;SDS011;4280;50.534;8.708;2024-03-02T07:50:29;53.17;;;24.53;;
8486;SDS011;4280;50.534;8.708;2024-03-02T07:52:55;50.83;;;24.13;;
8486;SDS011;4280;50.534;8.708;2024-03-02T07:55:21;45.93;;;22.93;;
8486;SDS011;4280;50.534;8.708;2024-03-02T07:57:48;47.43;;;23.77;;
8486;SDS011;4280;50.534;8.708;2024-03-02T08:00:15;43.60;;;22.50;;
8486;SDS011;4280;50.534;8.708;2024-03-02T08:02:41;33.77;;;19.57;;
8486;SDS011;4280;50.534;8.708;2024-03-02T08:05:07;44.43;;;19.90;;
8486;SDS011;4280;50.534;8.708;2024-03-02T08:07:33;35.67;;;18.57;;
8486;SDS011;4280;50.534;8.708;2024-03-02T08:09:59;30.40;;;16.13;;
8486;SDS011;4280;50.534;8.708;2024-03-02T08:12:25;29.07;;;16.50;;
8486;SDS011;4280;50.534;8.708;2024-03-02T08:14:51;34.70;;;17.10;;
8486;SDS011;4280;50.534;8.708;2024-03-02T08:17:17;27.10;;;15.67;;
8486;SDS011;4280;50.534;8.708;2024-03-02T08:19:42;28.50;;;15.87;;
8486;SDS011;4280;50.534;8.708;2024-03-02T08:22:09;27.63;;;16.60;;
8486;SDS011;4280;50.534;8.708;2024-03-02T08:24:35;32.77;;;16.90;;
8486;SDS011;4280;50.534;8.708;2024-03-02T08:27:01;35.00;;;18.40;;
8486;SDS011;4280;50.534;8.708;2024-03-02T08:29:27;31.53;;;17.03;;
8486;SDS011;4280;50.534;8.708;2024-03-02T08:31:53;29.70;;;15.13;;
8486;SDS011;4280;50.534;8.708;2024-03-02T08:34:19;31.27;;;15.63;;
8486;SDS011;4280;50.534;8.708;2024-03-02T08:36:45;23.20;;;14.10;;
8486;SDS011;4280;50.534;8.708;2024-03-02T08:39:11;23.57;;;13.00;;
8486;SDS011;4280;50.534;8.708;2024-03-02T08:41:46;23.30;;;12.60;;
8486;SDS011;4280;50.534;8.708;2024-03-02T08:44:13;23.27;;;12.53;;
8486;SDS011;4280;50.534;8.708;2024-03-02T08:46:39;22.17;;;12.90;;
8486;SDS011;4280;50.534;8.708;2024-03-02T08:49:06;22.67;;;14.07;;
8486;SDS011;4280;50.534;8.708;2024-03-02T08:51:32;21.43;;;13.20;;
8486;SDS011;4280;50.534;8.708;2024-03-02T08:53:58;22.70;;;13.43;;
8486;SDS011;4280;50.534;8.708;2024-03-02T08:56:24;25.13;;;13.93;;
8486;SDS011;4280;50.534;8.708;2024-03-02T08:58:50;25.43;;;13.83;;
8486;SDS011;4280;50.534;8.708;2024-03-02T09:01:17;28.77;;;15.00;;
8486;SDS011;4280;50.534;8.708;2024-03-02T09:03:44;27.77;;;14.50;;
8486;SDS011;4280;50.534;8.708;2024-03-02T09:06:10;24.50;;;13.07;;
8486;SDS011;4280;50.534;8.708;2024-03-02T09:08:37;23.40;;;13.40;;
8486;SDS011;4280;50.534;8.708;2024-03-02T09:11:04;21.13;;;12.77;;
8486;SDS011;4280;50.534;8.708;2024-03-02T09:13:33;22.97;;;13.97;;
8486;SDS011;4280;50.534;8.708;2024-03-02T09:15:59;23.87;;;13.03;;
8486;SDS011;4280;50.534;8.708;2024-03-02T09:18:24;23.23;;;12.97;;
8486;SDS011;4280;50.534;8.708;2024-03-02T09:20:50;22.33;;;14.10;;
8486;SDS011;4280;50.534;8.708;2024-03-02T09:23:16;23.93;;;13.30;;
8486;SDS011;4280;50.534;8.708;2024-03-02T09:25:41;24.37;;;14.57;;
8486;SDS011;4280;50.534;8.708;2024-03-02T09:28:07;24.63;;;14.07;;
8486;SDS011;4280;50.534;8.708;2024-03-02T09:30:33;23.10;;;13.33;;
8486;SDS011;4280;50.534;8.708;2024-03-02T09:32:58;24.33;;;13.50;;
8486;SDS011;4280;50.534;8.708;2024-03-02T09:35:24;22.60;;;12.90;;
8486;SDS011;4280;50.534;8.708;2024-03-02T09:37:50;23.53;;;13.47;;
8486;SDS011;4280;50.534;8.708;2024-03-02T09:40:16;20.93;;;12.87;;
8486;SDS011;4280;50.534;8.708;2024-03-02T09:42:42;21.60;;;13.03;;
8486;SDS011;4280;50.534;8.708;2024-03-02T09:45:08;20.87;;;13.30;;
8486;SDS011;4280;50.534;8.708;2024-03-02T09:47:35;23.40;;;13.70;;
8486;SDS011;4280;50.534;8.708;2024-03-02T09:50:01;24.83;;;14.27;;
8486;SDS011;4280;50.534;8.708;2024-03-02T09:52:26;22.27;;;12.50;;
8486;SDS011;4280;50.534;8.708;2024-03-02T09:54:52;20.23;;;12.60;;
8486;SDS011;4280;50.534;8.708;2024-03-02T09:57:18;20.00;;;11.20;;
8486;SDS011;4280;50.534;8.708;2024-03-02T09:59:44;19.27;;;12.50;;
8486;SDS011;4280;50.534;8.708;2024-03-02T10:02:10;19.23;;;12.10;;
8486;SDS011;4280;50.534;8.708;2024-03-02T10:04:36;23.30;;;12.47;;
8486;SDS011;4280;50.534;8.708;2024-03-02T10:07:15;23.37;;;13.80;;
8486;SDS011;4280;50.534;8.708;2024-03-02T10:09:43;22.13;;;12.50;;
8486;SDS011;4280;50.534;8.708;2024-03-02T10:12:10;26.70;;;12.70;;
8486;SDS011;4280;50.534;8.708;2024-03-02T10:14:38;22.37;;;13.30;;
8486;SDS011;4280;50.534;8.708;2024-03-02T10:17:05;20.40;;;12.70;;
8486;SDS011;4280;50.534;8.708;2024-03-02T10:19:34;18.43;;;12.07;;
8486;SDS011;4280;50.534;8.708;2024-03-02T10:22:02;23.57;;;12.90;;
8486;SDS011;4280;50.534;8.708;2024-03-02T10:24:38;20.43;;;12.90;;
8486;SDS011;4280;50.534;8.708;2024-03-02T10:27:06;22.73;;;12.33;;
8486;SDS011;4280;50.534;8.708;2024-03-02T10:29:41;22.23;;;12.40;;
8486;SDS011;4280;50.534;8.708;2024-03-02T10:32:10;18.93;;;11.77;;
8486;SDS011;4280;50.534;8.708;2024-03-02T10:34:37;29.87;;;13.47;;
8486;SDS011;4280;50.534;8.708;2024-03-02T10:37:05;22.60;;;12.00;;
8486;SDS011;4280;50.534;8.708;2024-03-02T10:39:34;21.17;;;12.00;;
8486;SDS011;4280;50.534;8.708;2024-03-02T10:42:01;19.97;;;12.07;;
8486;SDS011;4280;50.534;8.708;2024-03-02T10:44:28;19.37;;;11.37;;
8486;SDS011;4280;50.534;8.708;2024-03-02T10:46:55;19.70;;;10.90;;
8486;SDS011;4280;50.534;8.708;2024-03-02T10:49:22;22.77;;;11.03;;
8486;SDS011;4280;50.534;8.708;2024-03-02T10:51:50;19.97;;;11.73;;
8486;SDS011;4280;50.534;8.708;2024-03-02T10:54:15;20.10;;;11.80;;
8486;SDS011;4280;50.534;8.708;2024-03-02T10:56:44;19.13;;;11.43;;
8486;SDS011;4280;50.534;8.708;2024-03-02T11:01:48;16.60;;;10.80;;
8486;SDS011;4280;50.534;8.708;2024-03-02T11:04:16;15.70;;;9.30;;
8486;SDS011;4280;50.534;8.708;2024-03-02T11:06:54;14.60;;;9.47;;
8486;SDS011;4280;50.534;8.708;2024-03-02T11:09:37;15.30;;;9.37;;
8486;SDS011;4280;50.534;8.708;2024-03-02T11:12:13;14.30;;;9.60;;
8486;SDS011;4280;50.534;8.708;2024-03-02T11:14:45;14.70;;;9.27;;
8486;SDS011;4280;50.534;8.708;2024-03-02T11:17:11;16.50;;;8.73;;
8486;SDS011;4280;50.534;8.708;2024-03-02T11:19:40;16.90;;;9.10;;
8486;SDS011;4280;50.534;8.708;2024-03-02T11:22:07;15.47;;;9.03;;
8486;SDS011;4280;50.534;8.708;2024-03-02T11:24:34;16.43;;;9.80;;
8486;SDS011;4280;50.534;8.708;2024-03-02T11:27:00;21.57;;;11.00;;
8486;SDS011;4280;50.534;8.708;2024-03-02T11:32:03;14.47;;;8.83;;
8486;SDS011;4280;50.534;8.708;2024-03-02T11:34:31;13.30;;;9.30;;
8486;SDS011;4280;50.534;8.708;2024-03-02T11:37:01;11.97;;;7.40;;
8486;SDS011;4280;50.534;8.708;2024-03-02T11:39:28;13.73;;;7.27;;
8486;SDS011;4280;50.534;8.708;2024-03-02T11:41:54;11.13;;;6.90;;
8486;SDS011;4280;50.534;8.708;2024-03-02T11:44:22;8.90;;;6.53;;
8486;SDS011;4280;50.534;8.708;2024-03-02T11:46:58;11.90;;;6.53;;
8486;SDS011;4280;50.534;8.708;2024-03-02T11:49:38;13.63;;;7.83;;
8486;SDS011;4280;50.534;8.708;2024-03-02T11:52:06;18.60;;;7.27;;
8486;SDS011;4280;50.534;8.708;2024-03-02T11:54:37;12.63;;;8.27;;
8486;SDS011;4280;50.534;8.708;2024-03-02T11:57:05;11.30;;;7.90;;
8486;SDS011;4280;50.534;8.708;2024-03-02T11:59:32;12.23;;;7.33;;
8486;SDS011;4280;50.534;8.708;2024-03-02T12:01:58;10.60;;;6.70;;
8486;SDS011;4280;50.534;8.708;2024-03-02T12:04:25;9.57;;;7.20;;
8486;SDS011;4280;50.534;8.708;2024-03-02T12:06:55;12.23;;;7.57;;
8486;SDS011;4280;50.534;8.708;2024-03-02T12:09:24;21.47;;;9.20;;
8486;SDS011;4280;50.534;8.708;2024-03-02T12:12:04;16.27;;;9.10;;
8486;SDS011;4280;50.534;8.708;2024-03-02T12:14:35;15.10;;;8.87;;
8486;SDS011;4280;50.534;8.708;2024-03-02T12:17:04;14.13;;;7.87;;
8486;SDS011;4280;50.534;8.708;2024-03-02T12:19:31;12.43;;;7.60;;
8486;SDS011;4280;50.534;8.708;2024-03-02T12:21:58;13.73;;;6.90;;
8486;SDS011;4280;50.534;8.708;2024-03-02T12:24:27;9.90;;;6.87;;
8486;SDS011;4280;50.534;8.708;2024-03-02T12:26:54;10.60;;;7.00;;
8486;SDS011;4280;50.534;8.708;2024-03-02T12:29:21;13.07;;;8.17;;
8486;SDS011;4280;50.534;8.708;2024-03-02T12:31:48;15.10;;;7.97;;
8486;SDS011;4280;50.534;8.708;2024-03-02T12:34:15;11.17;;;6.70;;
8486;SDS011;4280;50.534;8.708;2024-03-02T12:36:42;11.33;;;7.03;;
8486;SDS011;4280;50.534;8.708;2024-03-02T12:39:12;11.53;;;8.30;;
8486;SDS011;4280;50.534;8.708;2024-03-02T12:41:38;13.40;;;7.40;;
8486;SDS011;4280;50.534;8.708;2024-03-02T12:44:04;12.10;;;6.80;;
8486;SDS011;4280;50.534;8.708;2024-03-02T12:46:33;11.90;;;7.10;;
8486;SDS011;4280;50.534;8.708;2024-03-02T12:49:10;21.70;;;6.73;;
8486;SDS011;4280;50.534;8.708;2024-03-02T12:51:38;9.57;;;6.73;;
8486;SDS011;4280;50.534;8.708;2024-03-02T12:54:09;10.07;;;6.30;;
8486;SDS011;4280;50.534;8.708;2024-03-02T12:56:38;10.37;;;7.10;;
8486;SDS011;4280;50.534;8.708;2024-03-02T12:59:10;16.53;;;7.13;;
8486;SDS011;4280;50.534;8.708;2024-03-02T13:01:50;8.33;;;5.40;;
8486;SDS011;4280;50.534;8.708;2024-03-02T13:04:16;8.07;;;4.70;;
8486;SDS011;4280;50.534;8.708;2024-03-02T13:06:42;6.40;;;4.60;;
8486;SDS011;4280;50.534;8.708;2024-03-02T13:09:08;7.17;;;5.00;;
8486;SDS011;4280;50.534;8.708;2024-03-02T13:11:39;8.37;;;5.43;;
8486;SDS011;4280;50.534;8.708;2024-03-02T13:14:06;9.33;;;5.70;;
8486;SDS011;4280;50.534;8.708;2024-03-02T13:16:32;6.80;;;5.30;;
8486;SDS011;4280;50.534;8.708;2024-03-02T13:19:07;10.90;;;5.10;;
8486;SDS011;4280;50.534;8.708;2024-03-02T13:21:36;6.20;;;4.30;;
8486;SDS011;4280;50.534;8.708;2024-03-02T13:24:02;12.27;;;5.30;;
8486;SDS011;4280;50.534;8.708;2024-03-02T13:26:29;6.80;;;4.30;;
8486;SDS011;4280;50.534;8.708;2024-03-02T13:28:55;8.27;;;5.07;;
8486;SDS011;4280;50.534;8.708;2024-03-02T13:31:21;7.53;;;4.90;;
8486;SDS011;4280;50.534;8.708;2024-03-02T13:33:47;14.60;;;4.13;;
8486;SDS011;4280;50.534;8.708;2024-03-02T13:36:13;5.00;;;3.60;;
8486;SDS011;4280;50.534;8.708;2024-03-02T13:38:38;5.37;;;4.10;;
8486;SDS011;4280;50.534;8.708;2024-03-02T13:41:04;5.30;;;3.50;;
8486;SDS011;4280;50.534;8.708;2024-03-02T13:43:30;5.83;;;3.60;;
8486;SDS011;4280;50.534;8.708;2024-03-02T13:46:00;5.80;;;3.17;;
8486;SDS011;4280;50.534;8.708;2024-03-02T13:48:27;3.00;;;2.20;;
8486;SDS011;4280;50.534;8.708;2024-03-02T13:50:53;2.93;;;2.20;;
8486;SDS011;4280;50.534;8.708;2024-03-02T13:53:19;2.83;;;2.23;;
8486;SDS011;4280;50.534;8.708;2024-03-02T13:55:45;4.50;;;2.93;;
8486;SDS011;4280;50.534;8.708;2024-03-02T13:58:11;3.43;;;2.70;;
8486;SDS011;4280;50.534;8.708;2024-03-02T14:00:37;5.00;;;2.80;;
8486;SDS011;4280;50.534;8.708;2024-03-02T14:03:04;8.07;;;3.07;;
8486;SDS011;4280;50.534;8.708;2024-03-02T14:05:31;5.73;;;3.30;;
8486;SDS011;4280;50.534;8.708;2024-03-02T14:07:57;3.40;;;2.80;;
8486;SDS011;4280;50.534;8.708;2024-03-02T14:10:25;6.83;;;3.10;;
8486;SDS011;4280;50.534;8.708;2024-03-02T14:12:50;4.50;;;3.40;;
8486;SDS011;4280;50.534;8.708;2024-03-02T14:15:16;6.30;;;3.30;;
8486;SDS011;4280;50.534;8.708;2024-03-02T14:17:42;6.80;;;3.67;;
8486;SDS011;4280;50.534;8.708;2024-03-02T14:20:08;4.87;;;3.33;;
8486;SDS011;4280;50.534;8.708;2024-03-02T14:22:36;6.00;;;3.07;;
8486;SDS011;4280;50.534;8.708;2024-03-02T14:25:02;4.43;;;3.10;;
8486;SDS011;4280;50.534;8.708;2024-03-02T14:27:29;4.47;;;2.70;;
8486;SDS011;4280;50.534;8.708;2024-03-02T14:29:55;5.67;;;2.93;;
8486;SDS011;4280;50.534;8.708;2024-03-02T14:32:21;3.60;;;2.90;;
8486;SDS011;4280;50.534;8.708;2024-03-02T14:34:47;3.20;;;2.50;;
8486;SDS011;4280;50.534;8.708;2024-03-02T14:37:13;5.70;;;3.97;;
8486;SDS011;4280;50.534;8.708;2024-03-02T14:39:42;5.33;;;3.20;;
8486;SDS011;4280;50.534;8.708;2024-03-02T14:42:08;5.40;;;3.63;;
8486;SDS011;4280;50.534;8.708;2024-03-02T14:44:33;7.13;;;3.37;;
8486;SDS011;4280;50.534;8.708;2024-03-02T14:47:01;9.20;;;3.70;;
8486;SDS011;4280;50.534;8.708;2024-03-02T14:49:29;5.23;;;3.30;;
8486;SDS011;4280;50.534;8.708;2024-03-02T14:51:55;6.73;;;2.97;;
8486;SDS011;4280;50.534;8.708;2024-03-02T14:54:21;5.57;;;3.60;;
8486;SDS011;4280;50.534;8.708;2024-03-02T14:56:47;3.83;;;3.00;;
8486;SDS011;4280;50.534;8.708;2024-03-02T14:59:13;3.50;;;2.63;;
8486;SDS011;4280;50.534;8.708;2024-03-02T15:01:38;5.40;;;3.20;;